sensor_id;sensor_type;location;lat;lon;timestamp;temperature;humidity
26703;DHT22;14316;51.074;3.704;2022-10-15T00:02:19;13.90;99.90
26703;DHT22;14316;51.074;3.704;2022-10-15T00:04:44;13.90;99.90
26703;DHT22;14316;51.074;3.704;2022-10-15T00:07:10;13.90;99.90
26703;DHT22;14316;51.074;3.704;2022-10-15T00:09:36;13.90;99.90
26703;DHT22;14316;51.074;3.704;2022-10-15T00:12:01;13.90;99.90
26703;DHT22;14316;51.074;3.704;2022-10-15T00:14:28;13.90;99.90
26703;DHT22;14316;51.074;3.704;2022-10-15T00:16:54;14.00;99.90
26703;DHT22;14316;51.074;3.704;2022-10-15T00:19:19;14.00;99.90
26703;DHT22;14316;51.074;3.704;2022-10-15T00:21:45;14.00;99.90
26703;DHT22;14316;51.074;3.704;2022-10-15T00:24:11;14.00;99.90
26703;DHT22;14316;51.074;3.704;2022-10-15T00:26:37;13.90;99.90
26703;DHT22;14316;51.074;3.704;2022-10-15T00:29:03;13.90;99.90
26703;DHT22;14316;51.074;3.704;2022-10-15T00:31:30;14.00;99.90
26703;DHT22;14316;51.074;3.704;2022-10-15T00:33:58;13.90;99.90
26703;DHT22;14316;51.074;3.704;2022-10-15T00:36:33;13.90;99.90
26703;DHT22;14316;51.074;3.704;2022-10-15T00:39:04;14.00;99.90
26703;DHT22;14316;51.074;3.704;2022-10-15T00:41:36;13.90;99.90
26703;DHT22;14316;51.074;3.704;2022-10-15T00:46:53;13.80;99.90
26703;DHT22;14316;51.074;3.704;2022-10-15T00:52:06;13.80;99.90
26703;DHT22;14316;51.074;3.704;2022-10-15T00:54:36;13.80;99.90
26703;DHT22;14316;51.074;3.704;2022-10-15T00:57:03;13.70;99.90
26703;DHT22;14316;51.074;3.704;2022-10-15T00:59:31;13.70;99.90
26703;DHT22;14316;51.074;3.704;2022-10-15T01:02:00;13.80;99.90
26703;DHT22;14316;51.074;3.704;2022-10-15T01:04:27;13.60;99.90
26703;DHT22;14316;51.074;3.704;2022-10-15T01:06:54;13.60;99.90
26703;DHT22;14316;51.074;3.704;2022-10-15T01:09:19;13.50;99.90
26703;DHT22;14316;51.074;3.704;2022-10-15T01:11:50;13.50;99.90
26703;DHT22;14316;51.074;3.704;2022-10-15T01:28:37;13.30;99.90
26703;DHT22;14316;51.074;3.704;2022-10-15T01:31:18;13.30;99.90
26703;DHT22;14316;51.074;3.704;2022-10-15T01:39:31;13.30;99.90
26703;DHT22;14316;51.074;3.704;2022-10-15T01:42:04;13.40;99.90
26703;DHT22;14316;51.074;3.704;2022-10-15T01:44:43;13.30;99.90
26703;DHT22;14316;51.074;3.704;2022-10-15T01:47:35;13.30;99.90
26703;DHT22;14316;51.074;3.704;2022-10-15T01:50:04;13.30;99.90
26703;DHT22;14316;51.074;3.704;2022-10-15T01:52:35;13.30;99.90
26703;DHT22;14316;51.074;3.704;2022-10-15T01:55:04;13.30;99.90
26703;DHT22;14316;51.074;3.704;2022-10-15T01:57:31;13.30;99.90
26703;DHT22;14316;51.074;3.704;2022-10-15T01:59:58;13.20;99.90
26703;DHT22;14316;51.074;3.704;2022-10-15T02:02:26;13.20;99.90
26703;DHT22;14316;51.074;3.704;2022-10-15T02:04:51;13.10;99.90
26703;DHT22;14316;51.074;3.704;2022-10-15T02:10:18;13.10;99.90
26703;DHT22;14316;51.074;3.704;2022-10-15T02:18:04;13.00;99.90
26703;DHT22;14316;51.074;3.704;2022-10-15T02:23:11;13.10;99.90
26703;DHT22;14316;51.074;3.704;2022-10-15T02:25:39;13.40;99.90
26703;DHT22;14316;51.074;3.704;2022-10-15T02:28:07;13.20;99.90
26703;DHT22;14316;51.074;3.704;2022-10-15T02:30:34;13.20;99.90
26703;DHT22;14316;51.074;3.704;2022-10-15T02:33:02;13.30;99.90
26703;DHT22;14316;51.074;3.704;2022-10-15T02:35:27;13.30;99.90
26703;DHT22;14316;51.074;3.704;2022-10-15T02:37:56;13.30;99.90
26703;DHT22;14316;51.074;3.704;2022-10-15T02:40:26;13.40;99.90
26703;DHT22;14316;51.074;3.704;2022-10-15T02:42:52;13.40;99.90
26703;DHT22;14316;51.074;3.704;2022-10-15T02:45:19;13.40;99.90
26703;DHT22;14316;51.074;3.704;2022-10-15T02:47:45;13.50;99.90
26703;DHT22;14316;51.074;3.704;2022-10-15T02:50:11;13.50;99.90
26703;DHT22;14316;51.074;3.704;2022-10-15T02:52:37;13.50;99.90
26703;DHT22;14316;51.074;3.704;2022-10-15T02:55:02;13.60;99.90
26703;DHT22;14316;51.074;3.704;2022-10-15T02:57:28;13.60;99.90
26703;DHT22;14316;51.074;3.704;2022-10-15T02:59:54;13.60;99.90
26703;DHT22;14316;51.074;3.704;2022-10-15T03:02:20;13.60;99.90
26703;DHT22;14316;51.074;3.704;2022-10-15T03:04:45;13.70;99.90
26703;DHT22;14316;51.074;3.704;2022-10-15T03:07:11;13.70;99.90
26703;DHT22;14316;51.074;3.704;2022-10-15T03:09:38;13.80;99.90
26703;DHT22;14316;51.074;3.704;2022-10-15T03:12:04;13.70;99.90
26703;DHT22;14316;51.074;3.704;2022-10-15T03:14:30;13.70;99.90
26703;DHT22;14316;51.074;3.704;2022-10-15T03:16:56;13.70;99.90
26703;DHT22;14316;51.074;3.704;2022-10-15T03:19:21;13.70;99.90
26703;DHT22;14316;51.074;3.704;2022-10-15T03:21:47;13.70;99.90
26703;DHT22;14316;51.074;3.704;2022-10-15T03:24:13;13.50;99.90
26703;DHT22;14316;51.074;3.704;2022-10-15T03:26:39;13.40;99.90
26703;DHT22;14316;51.074;3.704;2022-10-15T03:29:04;13.40;99.90
26703;DHT22;14316;51.074;3.704;2022-10-15T03:31:30;13.30;99.90
26703;DHT22;14316;51.074;3.704;2022-10-15T03:33:55;13.40;99.90
26703;DHT22;14316;51.074;3.704;2022-10-15T03:36:21;13.40;99.90
26703;DHT22;14316;51.074;3.704;2022-10-15T03:38:47;13.50;99.90
26703;DHT22;14316;51.074;3.704;2022-10-15T03:41:12;13.50;99.90
26703;DHT22;14316;51.074;3.704;2022-10-15T03:43:38;13.50;99.90
26703;DHT22;14316;51.074;3.704;2022-10-15T03:46:04;13.60;99.90
26703;DHT22;14316;51.074;3.704;2022-10-15T03:48:30;13.60;99.90
26703;DHT22;14316;51.074;3.704;2022-10-15T03:50:56;13.60;99.90
26703;DHT22;14316;51.074;3.704;2022-10-15T03:53:22;14.10;99.90
26703;DHT22;14316;51.074;3.704;2022-10-15T03:55:48;13.70;99.90
26703;DHT22;14316;51.074;3.704;2022-10-15T03:58:14;13.70;99.90
26703;DHT22;14316;51.074;3.704;2022-10-15T04:00:41;13.60;99.90
26703;DHT22;14316;51.074;3.704;2022-10-15T04:03:07;13.70;99.90
26703;DHT22;14316;51.074;3.704;2022-10-15T04:05:33;13.80;99.90
26703;DHT22;14316;51.074;3.704;2022-10-15T04:07:59;13.90;99.90
26703;DHT22;14316;51.074;3.704;2022-10-15T04:10:24;14.00;99.90
26703;DHT22;14316;51.074;3.704;2022-10-15T04:12:50;14.10;99.90
26703;DHT22;14316;51.074;3.704;2022-10-15T04:15:16;14.20;99.90
26703;DHT22;14316;51.074;3.704;2022-10-15T04:17:42;14.00;99.90
26703;DHT22;14316;51.074;3.704;2022-10-15T04:20:08;13.90;99.90
26703;DHT22;14316;51.074;3.704;2022-10-15T04:22:36;14.00;99.90
26703;DHT22;14316;51.074;3.704;2022-10-15T04:25:02;13.90;99.90
26703;DHT22;14316;51.074;3.704;2022-10-15T04:27:28;13.90;99.90
26703;DHT22;14316;51.074;3.704;2022-10-15T04:29:54;14.00;99.90
26703;DHT22;14316;51.074;3.704;2022-10-15T04:32:20;14.00;99.90
26703;DHT22;14316;51.074;3.704;2022-10-15T04:34:46;14.00;99.90
26703;DHT22;14316;51.074;3.704;2022-10-15T04:37:12;14.00;99.90
26703;DHT22;14316;51.074;3.704;2022-10-15T04:39:38;14.10;99.90
26703;DHT22;14316;51.074;3.704;2022-10-15T04:42:03;14.10;99.90
26703;DHT22;14316;51.074;3.704;2022-10-15T04:44:29;14.20;99.90
26703;DHT22;14316;51.074;3.704;2022-10-15T04:46:55;14.30;99.90
26703;DHT22;14316;51.074;3.704;2022-10-15T04:49:20;14.30;99.90
26703;DHT22;14316;51.074;3.704;2022-10-15T04:51:47;14.70;99.90
26703;DHT22;14316;51.074;3.704;2022-10-15T04:54:13;14.30;99.90
26703;DHT22;14316;51.074;3.704;2022-10-15T04:56:38;14.30;99.90
26703;DHT22;14316;51.074;3.704;2022-10-15T04:59:07;14.30;99.90
26703;DHT22;14316;51.074;3.704;2022-10-15T05:01:33;14.20;99.90
26703;DHT22;14316;51.074;3.704;2022-10-15T05:03:59;14.20;99.90
26703;DHT22;14316;51.074;3.704;2022-10-15T05:06:25;14.30;99.90
26703;DHT22;14316;51.074;3.704;2022-10-15T05:08:50;14.20;99.90
26703;DHT22;14316;51.074;3.704;2022-10-15T05:11:22;14.30;99.90
26703;DHT22;14316;51.074;3.704;2022-10-15T05:13:48;14.40;99.90
26703;DHT22;14316;51.074;3.704;2022-10-15T05:16:15;14.30;99.90
26703;DHT22;14316;51.074;3.704;2022-10-15T05:18:43;14.30;99.90
26703;DHT22;14316;51.074;3.704;2022-10-15T05:21:09;14.30;99.90
26703;DHT22;14316;51.074;3.704;2022-10-15T05:23:35;14.20;99.90
26703;DHT22;14316;51.074;3.704;2022-10-15T05:26:02;14.20;99.90
26703;DHT22;14316;51.074;3.704;2022-10-15T05:28:29;14.10;99.90
26703;DHT22;14316;51.074;3.704;2022-10-15T05:30:56;14.00;99.90
26703;DHT22;14316;51.074;3.704;2022-10-15T05:33:27;14.00;99.90
26703;DHT22;14316;51.074;3.704;2022-10-15T05:35:52;13.90;99.90
26703;DHT22;14316;51.074;3.704;2022-10-15T05:38:18;13.90;99.90
26703;DHT22;14316;51.074;3.704;2022-10-15T05:40:48;14.00;99.90
26703;DHT22;14316;51.074;3.704;2022-10-15T05:43:14;14.00;99.90
26703;DHT22;14316;51.074;3.704;2022-10-15T05:45:40;14.10;99.90
26703;DHT22;14316;51.074;3.704;2022-10-15T05:48:06;14.10;99.90
26703;DHT22;14316;51.074;3.704;2022-10-15T05:50:31;14.10;99.90
26703;DHT22;14316;51.074;3.704;2022-10-15T05:52:58;14.00;99.90
26703;DHT22;14316;51.074;3.704;2022-10-15T05:55:23;14.00;99.90
26703;DHT22;14316;51.074;3.704;2022-10-15T05:57:49;14.00;99.90
26703;DHT22;14316;51.074;3.704;2022-10-15T06:00:15;14.10;99.90
26703;DHT22;14316;51.074;3.704;2022-10-15T06:02:40;14.00;99.90
26703;DHT22;14316;51.074;3.704;2022-10-15T06:05:06;14.10;99.90
26703;DHT22;14316;51.074;3.704;2022-10-15T06:07:32;14.10;99.90
26703;DHT22;14316;51.074;3.704;2022-10-15T06:09:58;14.20;99.90
26703;DHT22;14316;51.074;3.704;2022-10-15T06:12:23;14.20;99.90
26703;DHT22;14316;51.074;3.704;2022-10-15T06:14:49;14.10;99.90
26703;DHT22;14316;51.074;3.704;2022-10-15T06:17:14;14.20;99.90
26703;DHT22;14316;51.074;3.704;2022-10-15T06:19:40;14.30;99.90
26703;DHT22;14316;51.074;3.704;2022-10-15T06:22:06;14.30;99.90
26703;DHT22;14316;51.074;3.704;2022-10-15T06:24:31;14.30;99.90
26703;DHT22;14316;51.074;3.704;2022-10-15T06:26:58;14.30;99.90
26703;DHT22;14316;51.074;3.704;2022-10-15T06:29:24;14.30;99.90
26703;DHT22;14316;51.074;3.704;2022-10-15T06:31:50;14.30;99.90
26703;DHT22;14316;51.074;3.704;2022-10-15T06:34:16;14.30;99.90
26703;DHT22;14316;51.074;3.704;2022-10-15T06:36:41;14.30;99.90
26703;DHT22;14316;51.074;3.704;2022-10-15T06:39:07;14.30;99.90
26703;DHT22;14316;51.074;3.704;2022-10-15T06:41:33;14.40;99.90
26703;DHT22;14316;51.074;3.704;2022-10-15T06:43:58;14.50;99.90
26703;DHT22;14316;51.074;3.704;2022-10-15T06:46:24;14.60;99.90
26703;DHT22;14316;51.074;3.704;2022-10-15T06:48:50;14.70;99.90
26703;DHT22;14316;51.074;3.704;2022-10-15T06:51:16;14.80;99.90
26703;DHT22;14316;51.074;3.704;2022-10-15T06:53:46;15.00;99.90
26703;DHT22;14316;51.074;3.704;2022-10-15T06:56:11;14.90;99.90
26703;DHT22;14316;51.074;3.704;2022-10-15T06:58:39;15.00;99.90
26703;DHT22;14316;51.074;3.704;2022-10-15T07:01:05;15.00;99.90
26703;DHT22;14316;51.074;3.704;2022-10-15T07:03:32;14.90;99.90
26703;DHT22;14316;51.074;3.704;2022-10-15T07:06:02;14.90;99.90
26703;DHT22;14316;51.074;3.704;2022-10-15T07:08:29;15.00;99.90
26703;DHT22;14316;51.074;3.704;2022-10-15T07:10:54;15.20;99.90
26703;DHT22;14316;51.074;3.704;2022-10-15T07:13:20;15.20;99.90
26703;DHT22;14316;51.074;3.704;2022-10-15T07:15:48;15.20;99.90
26703;DHT22;14316;51.074;3.704;2022-10-15T07:18:18;15.30;99.90
26703;DHT22;14316;51.074;3.704;2022-10-15T07:20:44;15.30;99.90
26703;DHT22;14316;51.074;3.704;2022-10-15T07:23:10;15.30;99.90
26703;DHT22;14316;51.074;3.704;2022-10-15T07:25:36;15.30;99.90
26703;DHT22;14316;51.074;3.704;2022-10-15T07:28:02;15.30;99.90
26703;DHT22;14316;51.074;3.704;2022-10-15T07:30:27;15.40;99.90
26703;DHT22;14316;51.074;3.704;2022-10-15T07:32:57;15.40;99.90
26703;DHT22;14316;51.074;3.704;2022-10-15T07:35:26;15.50;99.90
26703;DHT22;14316;51.074;3.704;2022-10-15T07:37:52;15.50;99.90
26703;DHT22;14316;51.074;3.704;2022-10-15T07:40:18;15.40;99.90
26703;DHT22;14316;51.074;3.704;2022-10-15T07:42:51;15.40;99.90
26703;DHT22;14316;51.074;3.704;2022-10-15T07:45:17;15.40;99.90
26703;DHT22;14316;51.074;3.704;2022-10-15T07:47:43;15.50;99.90
26703;DHT22;14316;51.074;3.704;2022-10-15T07:50:09;15.30;99.90
26703;DHT22;14316;51.074;3.704;2022-10-15T07:52:34;15.40;99.90
26703;DHT22;14316;51.074;3.704;2022-10-15T07:55:00;15.50;99.90
26703;DHT22;14316;51.074;3.704;2022-10-15T07:57:26;15.60;99.90
26703;DHT22;14316;51.074;3.704;2022-10-15T07:59:52;15.50;99.90
26703;DHT22;14316;51.074;3.704;2022-10-15T08:02:18;15.40;99.90
26703;DHT22;14316;51.074;3.704;2022-10-15T08:04:43;15.60;99.90
26703;DHT22;14316;51.074;3.704;2022-10-15T08:07:09;15.50;99.90
26703;DHT22;14316;51.074;3.704;2022-10-15T08:09:35;15.50;99.90
26703;DHT22;14316;51.074;3.704;2022-10-15T08:12:01;15.60;99.90
26703;DHT22;14316;51.074;3.704;2022-10-15T08:14:26;15.60;99.90
26703;DHT22;14316;51.074;3.704;2022-10-15T08:16:52;15.70;99.90
26703;DHT22;14316;51.074;3.704;2022-10-15T08:19:17;15.70;99.90
26703;DHT22;14316;51.074;3.704;2022-10-15T08:21:44;15.70;99.90
26703;DHT22;14316;51.074;3.704;2022-10-15T08:24:10;15.70;99.90
26703;DHT22;14316;51.074;3.704;2022-10-15T08:26:36;15.70;99.90
26703;DHT22;14316;51.074;3.704;2022-10-15T08:29:02;15.50;99.90
26703;DHT22;14316;51.074;3.704;2022-10-15T08:31:27;15.60;99.90
26703;DHT22;14316;51.074;3.704;2022-10-15T08:33:53;15.50;99.90
26703;DHT22;14316;51.074;3.704;2022-10-15T08:36:19;15.60;99.90
26703;DHT22;14316;51.074;3.704;2022-10-15T08:38:44;15.50;99.90
26703;DHT22;14316;51.074;3.704;2022-10-15T08:41:50;15.70;99.90
26703;DHT22;14316;51.074;3.704;2022-10-15T08:44:29;15.60;99.90
26703;DHT22;14316;51.074;3.704;2022-10-15T08:47:04;15.60;99.90
26703;DHT22;14316;51.074;3.704;2022-10-15T08:49:42;15.60;99.90
26703;DHT22;14316;51.074;3.704;2022-10-15T08:55:05;15.70;99.90
26703;DHT22;14316;51.074;3.704;2022-10-15T08:57:38;15.70;99.90
26703;DHT22;14316;51.074;3.704;2022-10-15T09:00:22;15.80;99.90
26703;DHT22;14316;51.074;3.704;2022-10-15T09:05:54;15.90;99.90
26703;DHT22;14316;51.074;3.704;2022-10-15T09:08:38;15.80;99.90
26703;DHT22;14316;51.074;3.704;2022-10-15T09:14:32;15.90;99.90
26703;DHT22;14316;51.074;3.704;2022-10-15T09:17:18;16.00;99.90
26703;DHT22;14316;51.074;3.704;2022-10-15T09:19:44;16.10;99.90
26703;DHT22;14316;51.074;3.704;2022-10-15T09:22:17;16.10;99.90
26703;DHT22;14316;51.074;3.704;2022-10-15T09:24:43;16.10;99.90
26703;DHT22;14316;51.074;3.704;2022-10-15T09:27:10;16.10;99.90
26703;DHT22;14316;51.074;3.704;2022-10-15T09:30:02;16.10;99.90
26703;DHT22;14316;51.074;3.704;2022-10-15T09:32:46;16.40;99.90
26703;DHT22;14316;51.074;3.704;2022-10-15T09:35:21;16.50;99.90
26703;DHT22;14316;51.074;3.704;2022-10-15T09:41:01;16.60;99.90
26703;DHT22;14316;51.074;3.704;2022-10-15T09:43:31;16.50;99.90
26703;DHT22;14316;51.074;3.704;2022-10-15T09:46:00;16.60;99.90
26703;DHT22;14316;51.074;3.704;2022-10-15T09:48:27;16.40;99.90
26703;DHT22;14316;51.074;3.704;2022-10-15T09:50:59;16.40;99.90
26703;DHT22;14316;51.074;3.704;2022-10-15T09:56:22;16.50;99.90
26703;DHT22;14316;51.074;3.704;2022-10-15T09:58:58;16.60;99.90
26703;DHT22;14316;51.074;3.704;2022-10-15T10:01:28;16.60;99.90
26703;DHT22;14316;51.074;3.704;2022-10-15T10:04:19;16.70;99.90
26703;DHT22;14316;51.074;3.704;2022-10-15T10:09:21;16.90;99.90
26703;DHT22;14316;51.074;3.704;2022-10-15T10:11:53;16.90;99.90
26703;DHT22;14316;51.074;3.704;2022-10-15T10:14:45;17.20;99.90
26703;DHT22;14316;51.074;3.704;2022-10-15T10:17:14;17.30;99.90
26703;DHT22;14316;51.074;3.704;2022-10-15T10:19:42;17.50;99.90
26703;DHT22;14316;51.074;3.704;2022-10-15T10:22:18;17.60;99.90
26703;DHT22;14316;51.074;3.704;2022-10-15T10:24:45;17.80;99.90
26703;DHT22;14316;51.074;3.704;2022-10-15T10:27:19;17.80;99.90
26703;DHT22;14316;51.074;3.704;2022-10-15T10:29:58;17.80;99.90
26703;DHT22;14316;51.074;3.704;2022-10-15T10:32:30;17.70;99.90
26703;DHT22;14316;51.074;3.704;2022-10-15T10:34:57;17.60;99.90
26703;DHT22;14316;51.074;3.704;2022-10-15T10:37:23;17.60;99.90
26703;DHT22;14316;51.074;3.704;2022-10-15T10:39:58;17.50;99.90
26703;DHT22;14316;51.074;3.704;2022-10-15T10:42:33;17.60;99.90
26703;DHT22;14316;51.074;3.704;2022-10-15T10:45:25;17.60;99.90
26703;DHT22;14316;51.074;3.704;2022-10-15T10:47:51;17.80;99.90
26703;DHT22;14316;51.074;3.704;2022-10-15T10:50:35;17.90;99.90
26703;DHT22;14316;51.074;3.704;2022-10-15T10:55:44;18.10;99.90
26703;DHT22;14316;51.074;3.704;2022-10-15T10:58:19;18.00;99.90
26703;DHT22;14316;51.074;3.704;2022-10-15T11:00:47;18.00;99.90
26703;DHT22;14316;51.074;3.704;2022-10-15T11:03:19;18.10;99.90
26703;DHT22;14316;51.074;3.704;2022-10-15T11:05:49;18.20;99.90
26703;DHT22;14316;51.074;3.704;2022-10-15T11:13:38;18.40;99.90
26703;DHT22;14316;51.074;3.704;2022-10-15T11:16:37;18.40;99.90
26703;DHT22;14316;51.074;3.704;2022-10-15T11:19:33;18.40;99.90
26703;DHT22;14316;51.074;3.704;2022-10-15T11:24:48;18.80;99.90
26703;DHT22;14316;51.074;3.704;2022-10-15T11:30:02;19.30;99.90
26703;DHT22;14316;51.074;3.704;2022-10-15T11:32:40;19.80;99.90
26703;DHT22;14316;51.074;3.704;2022-10-15T11:40:45;19.70;99.90
26703;DHT22;14316;51.074;3.704;2022-10-15T11:44:16;19.50;99.90
26703;DHT22;14316;51.074;3.704;2022-10-15T11:54:36;19.50;99.90
26703;DHT22;14316;51.074;3.704;2022-10-15T11:57:16;19.50;99.90
26703;DHT22;14316;51.074;3.704;2022-10-15T11:59:54;19.70;99.90
26703;DHT22;14316;51.074;3.704;2022-10-15T12:02:34;19.70;99.90
26703;DHT22;14316;51.074;3.704;2022-10-15T12:07:42;19.00;99.90
26703;DHT22;14316;51.074;3.704;2022-10-15T12:10:34;18.80;99.90
26703;DHT22;14316;51.074;3.704;2022-10-15T12:19:11;18.70;99.90
26703;DHT22;14316;51.074;3.704;2022-10-15T12:24:49;18.40;99.90
26703;DHT22;14316;51.074;3.704;2022-10-15T12:32:43;18.80;99.90
26703;DHT22;14316;51.074;3.704;2022-10-15T12:37:42;19.30;99.90
26703;DHT22;14316;51.074;3.704;2022-10-15T12:42:53;20.70;99.90
26703;DHT22;14316;51.074;3.704;2022-10-15T12:45:39;21.20;99.90
26703;DHT22;14316;51.074;3.704;2022-10-15T12:50:41;20.80;99.90
26703;DHT22;14316;51.074;3.704;2022-10-15T12:53:31;21.00;99.90
26703;DHT22;14316;51.074;3.704;2022-10-15T12:56:10;20.90;99.90
26703;DHT22;14316;51.074;3.704;2022-10-15T12:58:41;20.60;99.90
26703;DHT22;14316;51.074;3.704;2022-10-15T13:06:24;19.90;99.90
26703;DHT22;14316;51.074;3.704;2022-10-15T13:11:49;18.80;99.90
26703;DHT22;14316;51.074;3.704;2022-10-15T13:14:38;19.50;99.90
26703;DHT22;14316;51.074;3.704;2022-10-15T13:17:16;19.90;99.90
26703;DHT22;14316;51.074;3.704;2022-10-15T13:23:47;19.10;99.90
26703;DHT22;14316;51.074;3.704;2022-10-15T13:26:37;18.80;99.90
26703;DHT22;14316;51.074;3.704;2022-10-15T13:29:03;19.70;99.90
26703;DHT22;14316;51.074;3.704;2022-10-15T13:31:52;20.40;99.90
26703;DHT22;14316;51.074;3.704;2022-10-15T13:34:26;20.30;99.90
26703;DHT22;14316;51.074;3.704;2022-10-15T13:36:55;20.20;99.90
26703;DHT22;14316;51.074;3.704;2022-10-15T13:39:36;20.30;99.90
26703;DHT22;14316;51.074;3.704;2022-10-15T13:42:23;20.80;99.90
26703;DHT22;14316;51.074;3.704;2022-10-15T13:45:03;21.20;99.90
26703;DHT22;14316;51.074;3.704;2022-10-15T13:47:34;21.10;99.90
26703;DHT22;14316;51.074;3.704;2022-10-15T13:50:21;21.40;99.90
26703;DHT22;14316;51.074;3.704;2022-10-15T13:52:56;21.10;99.90
26703;DHT22;14316;51.074;3.704;2022-10-15T13:55:31;21.20;99.90
26703;DHT22;14316;51.074;3.704;2022-10-15T13:58:18;22.20;99.90
26703;DHT22;14316;51.074;3.704;2022-10-15T14:01:07;23.10;99.90
26703;DHT22;14316;51.074;3.704;2022-10-15T14:03:35;23.00;99.90
26703;DHT22;14316;51.074;3.704;2022-10-15T14:08:44;21.30;99.90
26703;DHT22;14316;51.074;3.704;2022-10-15T14:11:12;21.20;99.90
26703;DHT22;14316;51.074;3.704;2022-10-15T14:13:54;21.80;99.90
26703;DHT22;14316;51.074;3.704;2022-10-15T14:21:30;23.60;99.90
26703;DHT22;14316;51.074;3.704;2022-10-15T14:24:06;24.00;99.90
26703;DHT22;14316;51.074;3.704;2022-10-15T14:26:37;23.00;99.90
26703;DHT22;14316;51.074;3.704;2022-10-15T14:29:04;22.40;99.90
26703;DHT22;14316;51.074;3.704;2022-10-15T14:31:38;21.70;99.90
26703;DHT22;14316;51.074;3.704;2022-10-15T14:34:24;20.80;99.90
26703;DHT22;14316;51.074;3.704;2022-10-15T14:36:50;20.00;99.90
26703;DHT22;14316;51.074;3.704;2022-10-15T14:39:34;19.40;99.90
26703;DHT22;14316;51.074;3.704;2022-10-15T14:42:05;19.00;99.90
26703;DHT22;14316;51.074;3.704;2022-10-15T14:44:42;18.80;99.90
26703;DHT22;14316;51.074;3.704;2022-10-15T14:47:29;18.70;99.90
26703;DHT22;14316;51.074;3.704;2022-10-15T14:49:58;19.30;99.90
26703;DHT22;14316;51.074;3.704;2022-10-15T14:52:26;19.60;99.90
26703;DHT22;14316;51.074;3.704;2022-10-15T14:55:07;20.70;99.90
26703;DHT22;14316;51.074;3.704;2022-10-15T14:57:39;21.50;99.90
26703;DHT22;14316;51.074;3.704;2022-10-15T15:00:31;21.10;99.90
26703;DHT22;14316;51.074;3.704;2022-10-15T15:03:01;20.40;99.90
26703;DHT22;14316;51.074;3.704;2022-10-15T15:05:28;19.90;99.90
26703;DHT22;14316;51.074;3.704;2022-10-15T15:07:55;20.00;99.90
26703;DHT22;14316;51.074;3.704;2022-10-15T15:10:25;20.30;99.90
26703;DHT22;14316;51.074;3.704;2022-10-15T15:12:54;20.80;99.90
26703;DHT22;14316;51.074;3.704;2022-10-15T15:15:23;21.10;99.90
26703;DHT22;14316;51.074;3.704;2022-10-15T15:17:52;20.80;99.90
26703;DHT22;14316;51.074;3.704;2022-10-15T15:20:18;20.60;99.90
26703;DHT22;14316;51.074;3.704;2022-10-15T15:22:46;20.10;99.90
26703;DHT22;14316;51.074;3.704;2022-10-15T15:25:34;19.70;99.90
26703;DHT22;14316;51.074;3.704;2022-10-15T15:28:02;19.40;99.90
26703;DHT22;14316;51.074;3.704;2022-10-15T15:30:29;19.70;99.90
26703;DHT22;14316;51.074;3.704;2022-10-15T15:32:56;20.20;99.90
26703;DHT22;14316;51.074;3.704;2022-10-15T15:35:55;19.80;99.90
26703;DHT22;14316;51.074;3.704;2022-10-15T15:38:19;19.40;99.90
26703;DHT22;14316;51.074;3.704;2022-10-15T15:40:46;19.10;99.90
26703;DHT22;14316;51.074;3.704;2022-10-15T15:43:14;18.90;99.90
26703;DHT22;14316;51.074;3.704;2022-10-15T15:45:40;18.60;99.90
26703;DHT22;14316;51.074;3.704;2022-10-15T15:48:05;18.70;99.90
26703;DHT22;14316;51.074;3.704;2022-10-15T15:50:31;18.70;99.90
26703;DHT22;14316;51.074;3.704;2022-10-15T15:52:58;19.10;99.90
26703;DHT22;14316;51.074;3.704;2022-10-15T15:55:24;18.90;99.90
26703;DHT22;14316;51.074;3.704;2022-10-15T15:57:50;18.80;99.90
26703;DHT22;14316;51.074;3.704;2022-10-15T16:00:16;19.00;99.90
26703;DHT22;14316;51.074;3.704;2022-10-15T16:02:42;19.30;99.90
26703;DHT22;14316;51.074;3.704;2022-10-15T16:05:14;19.10;99.90
26703;DHT22;14316;51.074;3.704;2022-10-15T16:07:41;18.80;99.90
26703;DHT22;14316;51.074;3.704;2022-10-15T16:10:07;18.40;99.90
26703;DHT22;14316;51.074;3.704;2022-10-15T16:12:38;18.20;99.90
26703;DHT22;14316;51.074;3.704;2022-10-15T16:15:05;17.90;99.90
26703;DHT22;14316;51.074;3.704;2022-10-15T16:17:31;17.70;99.90
26703;DHT22;14316;51.074;3.704;2022-10-15T16:19:57;17.40;99.90
26703;DHT22;14316;51.074;3.704;2022-10-15T16:22:23;17.20;99.90
26703;DHT22;14316;51.074;3.704;2022-10-15T16:24:49;17.10;99.90
26703;DHT22;14316;51.074;3.704;2022-10-15T16:27:14;16.90;99.90
26703;DHT22;14316;51.074;3.704;2022-10-15T16:29:40;16.80;99.90
26703;DHT22;14316;51.074;3.704;2022-10-15T16:32:06;16.60;99.90
26703;DHT22;14316;51.074;3.704;2022-10-15T16:34:32;16.60;99.90
26703;DHT22;14316;51.074;3.704;2022-10-15T16:36:58;16.50;99.90
26703;DHT22;14316;51.074;3.704;2022-10-15T16:39:23;16.30;99.90
26703;DHT22;14316;51.074;3.704;2022-10-15T16:41:50;16.20;99.90
26703;DHT22;14316;51.074;3.704;2022-10-15T16:44:15;16.20;99.90
26703;DHT22;14316;51.074;3.704;2022-10-15T16:46:41;16.10;99.90
26703;DHT22;14316;51.074;3.704;2022-10-15T16:49:08;16.10;99.90
26703;DHT22;14316;51.074;3.704;2022-10-15T16:51:33;16.00;99.90
26703;DHT22;14316;51.074;3.704;2022-10-15T16:53:59;16.00;99.90
26703;DHT22;14316;51.074;3.704;2022-10-15T16:56:27;16.00;99.90
26703;DHT22;14316;51.074;3.704;2022-10-15T16:58:54;16.00;99.90
26703;DHT22;14316;51.074;3.704;2022-10-15T17:01:26;16.00;99.90
26703;DHT22;14316;51.074;3.704;2022-10-15T17:03:52;15.90;99.90
26703;DHT22;14316;51.074;3.704;2022-10-15T17:06:20;15.90;99.90
26703;DHT22;14316;51.074;3.704;2022-10-15T17:08:57;15.80;99.90
26703;DHT22;14316;51.074;3.704;2022-10-15T17:13:59;15.80;99.90
26703;DHT22;14316;51.074;3.704;2022-10-15T17:16:31;15.70;99.90
26703;DHT22;14316;51.074;3.704;2022-10-15T17:18:57;15.70;99.90
26703;DHT22;14316;51.074;3.704;2022-10-15T17:21:25;15.60;99.90
26703;DHT22;14316;51.074;3.704;2022-10-15T17:23:53;15.60;99.90
26703;DHT22;14316;51.074;3.704;2022-10-15T17:26:22;15.50;99.90
26703;DHT22;14316;51.074;3.704;2022-10-15T17:28:49;15.50;99.90
26703;DHT22;14316;51.074;3.704;2022-10-15T17:31:18;15.50;99.90
26703;DHT22;14316;51.074;3.704;2022-10-15T17:33:45;15.50;99.90
26703;DHT22;14316;51.074;3.704;2022-10-15T17:36:15;15.50;99.90
26703;DHT22;14316;51.074;3.704;2022-10-15T17:38:42;15.40;99.90
26703;DHT22;14316;51.074;3.704;2022-10-15T17:41:16;15.40;99.90
26703;DHT22;14316;51.074;3.704;2022-10-15T17:43:46;15.40;99.90
26703;DHT22;14316;51.074;3.704;2022-10-15T17:46:15;15.30;99.90
26703;DHT22;14316;51.074;3.704;2022-10-15T17:48:41;15.30;99.90
26703;DHT22;14316;51.074;3.704;2022-10-15T17:51:10;15.30;99.90
26703;DHT22;14316;51.074;3.704;2022-10-15T17:53:37;15.30;99.90
26703;DHT22;14316;51.074;3.704;2022-10-15T17:58:39;15.20;99.90